sensor_id;sensor_type;location;lat;lon;timestamp;temperature;humidity
10247;DHT22;5168;47.854;7.944;2023-03-01T00:02:01;-3.30;99.90
10247;DHT22;5168;47.854;7.944;2023-03-01T00:04:26;-3.30;99.90
10247;DHT22;5168;47.854;7.944;2023-03-01T00:06:53;-3.20;99.90
10247;DHT22;5168;47.854;7.944;2023-03-01T00:14:10;-3.40;99.90
10247;DHT22;5168;47.854;7.944;2023-03-01T00:16:38;-3.80;99.90
10247;DHT22;5168;47.854;7.944;2023-03-01T00:19:05;-3.10;99.90
10247;DHT22;5168;47.854;7.944;2023-03-01T00:21:31;-3.40;99.90
10247;DHT22;5168;47.854;7.944;2023-03-01T00:23:57;-3.90;99.90
10247;DHT22;5168;47.854;7.944;2023-03-01T00:26:24;-3.30;99.90
10247;DHT22;5168;47.854;7.944;2023-03-01T00:28:50;-3.30;99.90
10247;DHT22;5168;47.854;7.944;2023-03-01T00:31:21;-3.50;99.90
10247;DHT22;5168;47.854;7.944;2023-03-01T00:33:47;-3.20;99.90
10247;DHT22;5168;47.854;7.944;2023-03-01T00:36:14;-3.10;99.90
10247;DHT22;5168;47.854;7.944;2023-03-01T00:38:43;-3.30;99.90
10247;DHT22;5168;47.854;7.944;2023-03-01T00:41:11;-3.60;99.90
10247;DHT22;5168;47.854;7.944;2023-03-01T00:43:37;-3.20;99.90
10247;DHT22;5168;47.854;7.944;2023-03-01T00:46:14;-2.50;99.90
10247;DHT22;5168;47.854;7.944;2023-03-01T00:48:41;-3.20;99.90
10247;DHT22;5168;47.854;7.944;2023-03-01T00:51:12;-3.90;99.90
10247;DHT22;5168;47.854;7.944;2023-03-01T00:53:38;-3.60;99.90
10247;DHT22;5168;47.854;7.944;2023-03-01T00:56:05;-3.80;99.90
10247;DHT22;5168;47.854;7.944;2023-03-01T00:58:31;-3.90;99.90
10247;DHT22;5168;47.854;7.944;2023-03-01T01:00:57;-4.10;99.90
10247;DHT22;5168;47.854;7.944;2023-03-01T01:05:53;-3.80;99.90
10247;DHT22;5168;47.854;7.944;2023-03-01T01:08:20;-3.80;99.90
10247;DHT22;5168;47.854;7.944;2023-03-01T01:10:46;-3.90;99.90
10247;DHT22;5168;47.854;7.944;2023-03-01T01:13:13;-3.20;99.90
10247;DHT22;5168;47.854;7.944;2023-03-01T01:15:39;-3.90;99.90
10247;DHT22;5168;47.854;7.944;2023-03-01T01:18:05;-4.20;99.90
10247;DHT22;5168;47.854;7.944;2023-03-01T01:20:30;-4.00;99.90
10247;DHT22;5168;47.854;7.944;2023-03-01T01:22:56;-4.20;99.90
10247;DHT22;5168;47.854;7.944;2023-03-01T01:32:42;-4.40;99.90
10247;DHT22;5168;47.854;7.944;2023-03-01T01:35:07;-4.60;99.90
10247;DHT22;5168;47.854;7.944;2023-03-01T01:37:33;-4.60;99.90
10247;DHT22;5168;47.854;7.944;2023-03-01T01:45:27;-4.50;99.90
10247;DHT22;5168;47.854;7.944;2023-03-01T01:47:54;-4.50;99.90
10247;DHT22;5168;47.854;7.944;2023-03-01T01:50:20;-4.70;99.90
10247;DHT22;5168;47.854;7.944;2023-03-01T01:52:48;-4.20;99.90
10247;DHT22;5168;47.854;7.944;2023-03-01T01:55:22;-4.90;99.90
10247;DHT22;5168;47.854;7.944;2023-03-01T01:57:52;-4.80;99.90
10247;DHT22;5168;47.854;7.944;2023-03-01T02:00:23;-4.80;99.90
10247;DHT22;5168;47.854;7.944;2023-03-01T02:02:51;-5.00;99.90
10247;DHT22;5168;47.854;7.944;2023-03-01T02:05:51;-4.80;99.90
10247;DHT22;5168;47.854;7.944;2023-03-01T02:08:20;-4.70;99.90
10247;DHT22;5168;47.854;7.944;2023-03-01T02:10:48;-5.30;99.90
10247;DHT22;5168;47.854;7.944;2023-03-01T02:13:14;-4.90;99.90
10247;DHT22;5168;47.854;7.944;2023-03-01T02:15:40;-5.00;99.90
10247;DHT22;5168;47.854;7.944;2023-03-01T02:18:07;-5.10;99.90
10247;DHT22;5168;47.854;7.944;2023-03-01T02:23:00;-5.00;99.90
10247;DHT22;5168;47.854;7.944;2023-03-01T02:28:03;-5.00;99.90
10247;DHT22;5168;47.854;7.944;2023-03-01T02:30:31;-5.10;99.90
10247;DHT22;5168;47.854;7.944;2023-03-01T02:32:59;-5.70;99.90
10247;DHT22;5168;47.854;7.944;2023-03-01T02:35:29;-5.20;99.90
10247;DHT22;5168;47.854;7.944;2023-03-01T02:37:56;-5.30;99.90
10247;DHT22;5168;47.854;7.944;2023-03-01T02:40:22;-5.30;99.90
10247;DHT22;5168;47.854;7.944;2023-03-01T02:42:54;-5.00;99.90
10247;DHT22;5168;47.854;7.944;2023-03-01T02:45:21;-5.20;99.90
10247;DHT22;5168;47.854;7.944;2023-03-01T02:47:46;-5.00;99.90
10247;DHT22;5168;47.854;7.944;2023-03-01T02:55:20;-5.00;99.90
10247;DHT22;5168;47.854;7.944;2023-03-01T02:57:46;-5.10;99.90
10247;DHT22;5168;47.854;7.944;2023-03-01T03:00:22;-5.00;99.90
10247;DHT22;5168;47.854;7.944;2023-03-01T03:02:53;-5.00;99.90
10247;DHT22;5168;47.854;7.944;2023-03-01T03:05:21;-5.60;99.90
10247;DHT22;5168;47.854;7.944;2023-03-01T03:07:48;-5.10;99.90
10247;DHT22;5168;47.854;7.944;2023-03-01T03:10:20;-5.10;99.90
10247;DHT22;5168;47.854;7.944;2023-03-01T03:12:50;-5.50;99.90
10247;DHT22;5168;47.854;7.944;2023-03-01T03:15:16;-5.10;99.90
10247;DHT22;5168;47.854;7.944;2023-03-01T03:17:43;-5.10;99.90
10247;DHT22;5168;47.854;7.944;2023-03-01T03:20:11;-5.10;99.90
10247;DHT22;5168;47.854;7.944;2023-03-01T03:22:40;-5.10;99.90
10247;DHT22;5168;47.854;7.944;2023-03-01T03:25:09;-5.10;99.90
10247;DHT22;5168;47.854;7.944;2023-03-01T03:27:36;-5.00;99.90
10247;DHT22;5168;47.854;7.944;2023-03-01T03:30:04;-4.90;99.90
10247;DHT22;5168;47.854;7.944;2023-03-01T03:35:00;-4.90;99.90
10247;DHT22;5168;47.854;7.944;2023-03-01T03:37:26;-4.90;99.90
10247;DHT22;5168;47.854;7.944;2023-03-01T03:40:10;-4.90;99.90
10247;DHT22;5168;47.854;7.944;2023-03-01T03:45:06;-4.80;99.90
10247;DHT22;5168;47.854;7.944;2023-03-01T03:49:58;-4.70;99.90
10247;DHT22;5168;47.854;7.944;2023-03-01T03:52:23;-4.80;99.90
10247;DHT22;5168;47.854;7.944;2023-03-01T04:02:07;-4.40;99.90
10247;DHT22;5168;47.854;7.944;2023-03-01T04:04:34;-4.50;99.90
10247;DHT22;5168;47.854;7.944;2023-03-01T04:11:51;-4.50;99.90
10247;DHT22;5168;47.854;7.944;2023-03-01T04:14:17;-4.60;99.90
10247;DHT22;5168;47.854;7.944;2023-03-01T04:16:42;-4.40;99.90
10247;DHT22;5168;47.854;7.944;2023-03-01T04:21:34;-3.60;99.90
10247;DHT22;5168;47.854;7.944;2023-03-01T04:24:01;-4.30;99.90
10247;DHT22;5168;47.854;7.944;2023-03-01T04:26:28;-4.20;99.90
10247;DHT22;5168;47.854;7.944;2023-03-01T04:28:54;-4.20;99.90
10247;DHT22;5168;47.854;7.944;2023-03-01T04:31:20;-4.10;99.90
10247;DHT22;5168;47.854;7.944;2023-03-01T04:33:51;-4.50;99.90
10247;DHT22;5168;47.854;7.944;2023-03-01T04:36:18;-4.60;99.90
10247;DHT22;5168;47.854;7.944;2023-03-01T04:38:44;-4.60;99.90
10247;DHT22;5168;47.854;7.944;2023-03-01T04:41:15;-4.40;99.90
10247;DHT22;5168;47.854;7.944;2023-03-01T04:46:11;-4.10;99.90
10247;DHT22;5168;47.854;7.944;2023-03-01T04:48:38;-4.20;99.90
10247;DHT22;5168;47.854;7.944;2023-03-01T04:51:05;-4.10;99.90
10247;DHT22;5168;47.854;7.944;2023-03-01T04:53:31;-4.20;99.90
10247;DHT22;5168;47.854;7.944;2023-03-01T05:05:47;-4.50;99.90
10247;DHT22;5168;47.854;7.944;2023-03-01T05:08:13;-4.00;99.90
10247;DHT22;5168;47.854;7.944;2023-03-01T05:10:49;-4.20;99.90
10247;DHT22;5168;47.854;7.944;2023-03-01T05:15:56;-3.40;99.90
10247;DHT22;5168;47.854;7.944;2023-03-01T05:18:23;-3.70;99.90
10247;DHT22;5168;47.854;7.944;2023-03-01T05:25:44;-3.80;99.90
10247;DHT22;5168;47.854;7.944;2023-03-01T05:28:11;-4.10;99.90
10247;DHT22;5168;47.854;7.944;2023-03-01T05:30:37;-3.90;99.90
10247;DHT22;5168;47.854;7.944;2023-03-01T05:33:05;-4.00;99.90
10247;DHT22;5168;47.854;7.944;2023-03-01T05:35:35;-3.60;99.90
10247;DHT22;5168;47.854;7.944;2023-03-01T05:40:27;-3.80;99.90
10247;DHT22;5168;47.854;7.944;2023-03-01T05:42:55;-3.60;99.90
10247;DHT22;5168;47.854;7.944;2023-03-01T05:45:23;-3.70;99.90
10247;DHT22;5168;47.854;7.944;2023-03-01T05:47:49;-4.30;99.90
10247;DHT22;5168;47.854;7.944;2023-03-01T05:50:23;-3.70;99.90
10247;DHT22;5168;47.854;7.944;2023-03-01T05:52:56;-3.80;99.90
10247;DHT22;5168;47.854;7.944;2023-03-01T05:55:23;-4.00;99.90
10247;DHT22;5168;47.854;7.944;2023-03-01T05:57:48;-3.70;99.90
10247;DHT22;5168;47.854;7.944;2023-03-01T06:00:17;-3.40;99.90
10247;DHT22;5168;47.854;7.944;2023-03-01T06:05:10;-3.80;99.90
10247;DHT22;5168;47.854;7.944;2023-03-01T06:10:03;-3.90;99.90
10247;DHT22;5168;47.854;7.944;2023-03-01T06:12:36;-3.90;99.90
10247;DHT22;5168;47.854;7.944;2023-03-01T06:15:04;-3.90;99.90
10247;DHT22;5168;47.854;7.944;2023-03-01T06:17:32;-3.70;99.90
10247;DHT22;5168;47.854;7.944;2023-03-01T06:27:16;-3.80;99.90
10247;DHT22;5168;47.854;7.944;2023-03-01T06:29:41;-3.80;99.90
10247;DHT22;5168;47.854;7.944;2023-03-01T06:32:07;-3.80;99.90
10247;DHT22;5168;47.854;7.944;2023-03-01T06:34:33;-3.50;99.90
10247;DHT22;5168;47.854;7.944;2023-03-01T06:44:16;-4.20;99.90
10247;DHT22;5168;47.854;7.944;2023-03-01T06:46:42;-3.90;99.90
10247;DHT22;5168;47.854;7.944;2023-03-01T06:49:07;-3.60;99.90
10247;DHT22;5168;47.854;7.944;2023-03-01T06:51:36;-3.70;99.90
10247;DHT22;5168;47.854;7.944;2023-03-01T06:54:03;-3.70;99.90
10247;DHT22;5168;47.854;7.944;2023-03-01T06:58:55;-3.50;99.90
10247;DHT22;5168;47.854;7.944;2023-03-01T07:01:20;-3.70;99.90
10247;DHT22;5168;47.854;7.944;2023-03-01T07:08:37;-3.40;99.90
10247;DHT22;5168;47.854;7.944;2023-03-01T07:13:31;-3.30;99.90
10247;DHT22;5168;47.854;7.944;2023-03-01T07:15:56;-3.60;99.90
10247;DHT22;5168;47.854;7.944;2023-03-01T07:18:22;-3.30;99.90
10247;DHT22;5168;47.854;7.944;2023-03-01T07:20:48;-3.30;99.90
10247;DHT22;5168;47.854;7.944;2023-03-01T07:23:13;-3.60;99.90
10247;DHT22;5168;47.854;7.944;2023-03-01T07:25:39;-3.50;99.90
10247;DHT22;5168;47.854;7.944;2023-03-01T07:28:04;-3.10;99.90
10247;DHT22;5168;47.854;7.944;2023-03-01T07:30:30;-3.20;99.90
10247;DHT22;5168;47.854;7.944;2023-03-01T07:32:57;-3.10;99.90
10247;DHT22;5168;47.854;7.944;2023-03-01T07:35:24;-3.00;99.90
10247;DHT22;5168;47.854;7.944;2023-03-01T07:37:50;-2.80;99.90
10247;DHT22;5168;47.854;7.944;2023-03-01T07:52:26;-2.60;99.90
10247;DHT22;5168;47.854;7.944;2023-03-01T07:59:44;-2.50;99.90
10247;DHT22;5168;47.854;7.944;2023-03-01T08:02:10;-2.40;99.90
10247;DHT22;5168;47.854;7.944;2023-03-01T08:07:05;-2.70;99.90
10247;DHT22;5168;47.854;7.944;2023-03-01T08:09:31;-2.10;99.90
10247;DHT22;5168;47.854;7.944;2023-03-01T08:11:57;-2.40;99.90
10247;DHT22;5168;47.854;7.944;2023-03-01T08:14:25;-2.30;99.90
10247;DHT22;5168;47.854;7.944;2023-03-01T08:16:50;-2.00;99.90
10247;DHT22;5168;47.854;7.944;2023-03-01T08:19:16;-2.40;99.90
10247;DHT22;5168;47.854;7.944;2023-03-01T08:24:07;-1.80;99.90
10247;DHT22;5168;47.854;7.944;2023-03-01T08:26:35;-1.50;99.90
10247;DHT22;5168;47.854;7.944;2023-03-01T08:29:01;-1.30;99.90
10247;DHT22;5168;47.854;7.944;2023-03-01T08:31:33;-1.70;99.90
10247;DHT22;5168;47.854;7.944;2023-03-01T08:34:03;-0.40;99.90
10247;DHT22;5168;47.854;7.944;2023-03-01T08:36:38;-1.10;99.90
10247;DHT22;5168;47.854;7.944;2023-03-01T08:39:05;-0.80;99.90
10247;DHT22;5168;47.854;7.944;2023-03-01T08:41:31;-0.50;99.90
10247;DHT22;5168;47.854;7.944;2023-03-01T08:46:37;0.10;99.90
10247;DHT22;5168;47.854;7.944;2023-03-01T08:49:08;0.10;99.90
10247;DHT22;5168;47.854;7.944;2023-03-01T08:51:34;0.10;99.90
10247;DHT22;5168;47.854;7.944;2023-03-01T08:54:04;0.30;99.90
10247;DHT22;5168;47.854;7.944;2023-03-01T08:56:30;0.10;99.90
10247;DHT22;5168;47.854;7.944;2023-03-01T08:58:56;-0.20;99.90
10247;DHT22;5168;47.854;7.944;2023-03-01T09:01:21;0.60;99.90
10247;DHT22;5168;47.854;7.944;2023-03-01T09:06:14;-0.20;99.90
10247;DHT22;5168;47.854;7.944;2023-03-01T09:08:42;-0.20;99.90
10247;DHT22;5168;47.854;7.944;2023-03-01T09:11:09;-0.30;99.90
10247;DHT22;5168;47.854;7.944;2023-03-01T09:13:35;-0.10;99.90
10247;DHT22;5168;47.854;7.944;2023-03-01T09:16:02;-0.30;99.90
10247;DHT22;5168;47.854;7.944;2023-03-01T09:18:29;-0.40;99.90
10247;DHT22;5168;47.854;7.944;2023-03-01T09:21:08;-0.70;99.90
10247;DHT22;5168;47.854;7.944;2023-03-01T09:23:42;-0.10;99.90
10247;DHT22;5168;47.854;7.944;2023-03-01T09:26:10;-0.30;99.90
10247;DHT22;5168;47.854;7.944;2023-03-01T09:31:02;0.50;99.90
10247;DHT22;5168;47.854;7.944;2023-03-01T09:33:30;0.70;99.90
10247;DHT22;5168;47.854;7.944;2023-03-01T09:36:07;1.00;99.90
10247;DHT22;5168;47.854;7.944;2023-03-01T09:38:33;1.80;99.90
10247;DHT22;5168;47.854;7.944;2023-03-01T09:41:00;2.10;99.90
10247;DHT22;5168;47.854;7.944;2023-03-01T09:43:49;2.30;99.90
10247;DHT22;5168;47.854;7.944;2023-03-01T09:46:20;2.50;99.90
10247;DHT22;5168;47.854;7.944;2023-03-01T09:48:57;2.50;99.90
10247;DHT22;5168;47.854;7.944;2023-03-01T09:51:29;2.40;99.90
10247;DHT22;5168;47.854;7.944;2023-03-01T09:53:56;2.20;99.90
10247;DHT22;5168;47.854;7.944;2023-03-01T09:56:52;2.10;99.90
10247;DHT22;5168;47.854;7.944;2023-03-01T10:10:34;1.50;99.90
10247;DHT22;5168;47.854;7.944;2023-03-01T10:13:15;2.10;99.90
10247;DHT22;5168;47.854;7.944;2023-03-01T10:15:47;1.90;99.90
10247;DHT22;5168;47.854;7.944;2023-03-01T10:18:18;2.50;99.90
10247;DHT22;5168;47.854;7.944;2023-03-01T10:23:16;4.10;99.90
10247;DHT22;5168;47.854;7.944;2023-03-01T10:26:00;4.70;99.90
10247;DHT22;5168;47.854;7.944;2023-03-01T10:28:37;5.50;99.90
10247;DHT22;5168;47.854;7.944;2023-03-01T10:31:05;6.10;99.90
10247;DHT22;5168;47.854;7.944;2023-03-01T10:33:38;6.30;99.90
10247;DHT22;5168;47.854;7.944;2023-03-01T10:36:05;6.80;99.90
10247;DHT22;5168;47.854;7.944;2023-03-01T10:38:51;6.60;99.90
10247;DHT22;5168;47.854;7.944;2023-03-01T10:41:20;7.30;99.90
10247;DHT22;5168;47.854;7.944;2023-03-01T10:46:33;7.60;99.90
10247;DHT22;5168;47.854;7.944;2023-03-01T10:49:19;8.10;99.90
10247;DHT22;5168;47.854;7.944;2023-03-01T10:51:47;8.40;99.90
10247;DHT22;5168;47.854;7.944;2023-03-01T10:54:28;8.40;99.90
10247;DHT22;5168;47.854;7.944;2023-03-01T10:56:56;8.70;99.90
10247;DHT22;5168;47.854;7.944;2023-03-01T11:02:24;8.90;99.90
10247;DHT22;5168;47.854;7.944;2023-03-01T11:05:19;8.90;99.90
10247;DHT22;5168;47.854;7.944;2023-03-01T11:07:56;8.90;99.90
10247;DHT22;5168;47.854;7.944;2023-03-01T11:10:31;9.20;99.90
10247;DHT22;5168;47.854;7.944;2023-03-01T11:13:18;9.10;99.90
10247;DHT22;5168;47.854;7.944;2023-03-01T11:16:05;9.30;99.90
10247;DHT22;5168;47.854;7.944;2023-03-01T11:20:59;9.40;99.90
10247;DHT22;5168;47.854;7.944;2023-03-01T11:23:29;9.20;99.90
10247;DHT22;5168;47.854;7.944;2023-03-01T11:25:58;9.80;99.90
10247;DHT22;5168;47.854;7.944;2023-03-01T11:28:26;10.10;99.90
10247;DHT22;5168;47.854;7.944;2023-03-01T11:31:03;9.90;99.90
10247;DHT22;5168;47.854;7.944;2023-03-01T11:33:46;10.20;98.90
10247;DHT22;5168;47.854;7.944;2023-03-01T11:36:24;10.80;99.50
10247;DHT22;5168;47.854;7.944;2023-03-01T11:38:53;10.60;98.80
10247;DHT22;5168;47.854;7.944;2023-03-01T11:49:51;12.20;94.30
10247;DHT22;5168;47.854;7.944;2023-03-01T12:08:03;11.70;89.20
10247;DHT22;5168;47.854;7.944;2023-03-01T12:14:04;11.90;91.20
10247;DHT22;5168;47.854;7.944;2023-03-01T12:22:31;11.10;88.20
10247;DHT22;5168;47.854;7.944;2023-03-01T12:30:43;11.00;88.90
10247;DHT22;5168;47.854;7.944;2023-03-01T12:38:42;10.40;87.80
10247;DHT22;5168;47.854;7.944;2023-03-01T12:44:21;10.80;90.70
10247;DHT22;5168;47.854;7.944;2023-03-01T12:47:07;10.70;91.80
10247;DHT22;5168;47.854;7.944;2023-03-01T12:49:51;10.70;90.80
10247;DHT22;5168;47.854;7.944;2023-03-01T12:52:39;11.20;91.20
10247;DHT22;5168;47.854;7.944;2023-03-01T12:55:37;10.90;86.40
10247;DHT22;5168;47.854;7.944;2023-03-01T13:09:39;11.30;90.30
10247;DHT22;5168;47.854;7.944;2023-03-01T13:17:48;11.90;89.00
10247;DHT22;5168;47.854;7.944;2023-03-01T13:20:20;12.10;85.90
10247;DHT22;5168;47.854;7.944;2023-03-01T13:22:46;11.50;84.80
10247;DHT22;5168;47.854;7.944;2023-03-01T13:25:19;12.40;87.00
10247;DHT22;5168;47.854;7.944;2023-03-01T13:27:46;12.20;86.70
10247;DHT22;5168;47.854;7.944;2023-03-01T13:35:51;12.10;87.00
10247;DHT22;5168;47.854;7.944;2023-03-01T13:38:36;12.10;83.80
10247;DHT22;5168;47.854;7.944;2023-03-01T13:43:31;12.50;80.00
10247;DHT22;5168;47.854;7.944;2023-03-01T13:45:57;12.50;79.50
10247;DHT22;5168;47.854;7.944;2023-03-01T13:48:29;12.20;78.80
10247;DHT22;5168;47.854;7.944;2023-03-01T13:51:07;12.40;82.30
10247;DHT22;5168;47.854;7.944;2023-03-01T13:53:36;11.70;80.80
10247;DHT22;5168;47.854;7.944;2023-03-01T13:56:11;11.60;83.00
10247;DHT22;5168;47.854;7.944;2023-03-01T13:58:56;11.70;80.30
10247;DHT22;5168;47.854;7.944;2023-03-01T14:01:34;11.40;81.50
10247;DHT22;5168;47.854;7.944;2023-03-01T14:04:02;11.70;85.50
10247;DHT22;5168;47.854;7.944;2023-03-01T14:06:30;11.00;81.40
10247;DHT22;5168;47.854;7.944;2023-03-01T14:09:17;10.60;80.50
10247;DHT22;5168;47.854;7.944;2023-03-01T14:20:39;9.70;90.30
10247;DHT22;5168;47.854;7.944;2023-03-01T14:23:11;9.50;85.90
10247;DHT22;5168;47.854;7.944;2023-03-01T14:25:38;9.80;89.50
10247;DHT22;5168;47.854;7.944;2023-03-01T14:28:37;9.10;83.90
10247;DHT22;5168;47.854;7.944;2023-03-01T14:31:44;8.80;90.30
10247;DHT22;5168;47.854;7.944;2023-03-01T14:34:20;9.00;91.30
10247;DHT22;5168;47.854;7.944;2023-03-01T14:36:46;8.90;91.50
10247;DHT22;5168;47.854;7.944;2023-03-01T14:39:20;8.80;88.00
10247;DHT22;5168;47.854;7.944;2023-03-01T14:41:49;8.60;91.70
10247;DHT22;5168;47.854;7.944;2023-03-01T14:44:19;8.40;91.40
10247;DHT22;5168;47.854;7.944;2023-03-01T14:46:52;7.90;90.10
10247;DHT22;5168;47.854;7.944;2023-03-01T14:49:24;7.70;89.40
10247;DHT22;5168;47.854;7.944;2023-03-01T14:52:05;7.30;92.70
10247;DHT22;5168;47.854;7.944;2023-03-01T14:54:42;7.20;93.20
10247;DHT22;5168;47.854;7.944;2023-03-01T14:57:20;7.00;92.20
10247;DHT22;5168;47.854;7.944;2023-03-01T14:59:47;6.70;94.10
10247;DHT22;5168;47.854;7.944;2023-03-01T15:02:17;6.20;94.30
10247;DHT22;5168;47.854;7.944;2023-03-01T15:04:47;6.30;92.20
10247;DHT22;5168;47.854;7.944;2023-03-01T15:07:14;6.70;95.30
10247;DHT22;5168;47.854;7.944;2023-03-01T15:09:40;5.30;95.20
10247;DHT22;5168;47.854;7.944;2023-03-01T15:12:45;5.10;95.40
10247;DHT22;5168;47.854;7.944;2023-03-01T15:15:33;5.60;92.80
10247;DHT22;5168;47.854;7.944;2023-03-01T15:18:01;5.20;96.20
10247;DHT22;5168;47.854;7.944;2023-03-01T15:20:29;4.80;96.90
10247;DHT22;5168;47.854;7.944;2023-03-01T15:22:57;4.90;95.80
10247;DHT22;5168;47.854;7.944;2023-03-01T15:25:27;4.20;98.90
10247;DHT22;5168;47.854;7.944;2023-03-01T15:27:55;4.00;96.60
10247;DHT22;5168;47.854;7.944;2023-03-01T15:30:25;3.90;97.10
10247;DHT22;5168;47.854;7.944;2023-03-01T15:35:59;3.70;99.90
10247;DHT22;5168;47.854;7.944;2023-03-01T15:38:49;3.40;98.20
10247;DHT22;5168;47.854;7.944;2023-03-01T15:41:30;3.50;99.90
10247;DHT22;5168;47.854;7.944;2023-03-01T15:44:14;3.80;99.90
10247;DHT22;5168;47.854;7.944;2023-03-01T15:46:40;3.80;99.90
10247;DHT22;5168;47.854;7.944;2023-03-01T15:51:54;3.30;99.90
10247;DHT22;5168;47.854;7.944;2023-03-01T15:54:22;3.10;99.90
10247;DHT22;5168;47.854;7.944;2023-03-01T15:56:49;3.00;99.90
10247;DHT22;5168;47.854;7.944;2023-03-01T15:59:16;3.00;99.90
10247;DHT22;5168;47.854;7.944;2023-03-01T16:01:42;2.80;99.90
10247;DHT22;5168;47.854;7.944;2023-03-01T16:04:13;2.60;99.90
10247;DHT22;5168;47.854;7.944;2023-03-01T16:09:12;2.90;99.90
10247;DHT22;5168;47.854;7.944;2023-03-01T16:21:25;2.50;99.90
10247;DHT22;5168;47.854;7.944;2023-03-01T16:23:51;2.70;99.90
10247;DHT22;5168;47.854;7.944;2023-03-01T16:26:17;2.40;99.90
10247;DHT22;5168;47.854;7.944;2023-03-01T16:28:44;2.40;99.90
10247;DHT22;5168;47.854;7.944;2023-03-01T16:31:11;2.30;99.90
10247;DHT22;5168;47.854;7.944;2023-03-01T16:33:37;2.10;99.90
10247;DHT22;5168;47.854;7.944;2023-03-01T16:36:08;2.10;99.90
10247;DHT22;5168;47.854;7.944;2023-03-01T16:38:34;2.10;99.90
10247;DHT22;5168;47.854;7.944;2023-03-01T16:41:00;2.00;99.90
10247;DHT22;5168;47.854;7.944;2023-03-01T16:43:25;1.90;99.90
10247;DHT22;5168;47.854;7.944;2023-03-01T16:50:43;1.40;99.90
10247;DHT22;5168;47.854;7.944;2023-03-01T16:53:09;1.50;99.90
10247;DHT22;5168;47.854;7.944;2023-03-01T16:55:34;1.60;99.90
10247;DHT22;5168;47.854;7.944;2023-03-01T16:58:01;1.70;99.90
10247;DHT22;5168;47.854;7.944;2023-03-01T17:00:26;2.00;99.90
10247;DHT22;5168;47.854;7.944;2023-03-01T17:07:46;1.20;99.90
10247;DHT22;5168;47.854;7.944;2023-03-01T17:10:11;1.30;99.90
10247;DHT22;5168;47.854;7.944;2023-03-01T17:12:38;1.10;99.90
10247;DHT22;5168;47.854;7.944;2023-03-01T17:15:04;1.10;99.90
10247;DHT22;5168;47.854;7.944;2023-03-01T17:17:30;0.90;99.90
10247;DHT22;5168;47.854;7.944;2023-03-01T17:19:56;0.70;99.90
10247;DHT22;5168;47.854;7.944;2023-03-01T17:22:22;0.70;99.90
10247;DHT22;5168;47.854;7.944;2023-03-01T17:27:14;1.10;99.90
10247;DHT22;5168;47.854;7.944;2023-03-01T17:29:41;0.50;99.90
10247;DHT22;5168;47.854;7.944;2023-03-01T17:32:07;0.40;99.90
10247;DHT22;5168;47.854;7.944;2023-03-01T17:34:33;0.40;99.90
10247;DHT22;5168;47.854;7.944;2023-03-01T17:36:59;0.60;99.90
10247;DHT22;5168;47.854;7.944;2023-03-01T17:39:24;0.80;99.90
10247;DHT22;5168;47.854;7.944;2023-03-01T17:41:53;0.60;99.90
10247;DHT22;5168;47.854;7.944;2023-03-01T17:44:19;0.60;99.90
10247;DHT22;5168;47.854;7.944;2023-03-01T17:46:45;0.50;99.90
10247;DHT22;5168;47.854;7.944;2023-03-01T17:54:03;0.50;99.90
10247;DHT22;5168;47.854;7.944;2023-03-01T18:01:22;0.60;99.90
10247;DHT22;5168;47.854;7.944;2023-03-01T18:03:50;0.70;99.90
10247;DHT22;5168;47.854;7.944;2023-03-01T18:06:18;0.80;99.90
10247;DHT22;5168;47.854;7.944;2023-03-01T18:08:45;0.50;99.90
10247;DHT22;5168;47.854;7.944;2023-03-01T18:11:12;0.40;99.90
10247;DHT22;5168;47.854;7.944;2023-03-01T18:13:38;1.50;99.90
10247;DHT22;5168;47.854;7.944;2023-03-01T18:16:06;0.90;99.90
10247;DHT22;5168;47.854;7.944;2023-03-01T18:20:59;0.60;99.90
10247;DHT22;5168;47.854;7.944;2023-03-01T18:23:25;0.60;99.90
10247;DHT22;5168;47.854;7.944;2023-03-01T18:25:51;0.80;99.90
10247;DHT22;5168;47.854;7.944;2023-03-01T18:28:18;0.80;99.90
10247;DHT22;5168;47.854;7.944;2023-03-01T18:30:43;0.80;99.90
10247;DHT22;5168;47.854;7.944;2023-03-01T18:33:09;0.60;99.90
10247;DHT22;5168;47.854;7.944;2023-03-01T18:35:36;0.70;99.90
10247;DHT22;5168;47.854;7.944;2023-03-01T18:38:02;0.60;99.90
10247;DHT22;5168;47.854;7.944;2023-03-01T18:40:28;0.70;99.90
10247;DHT22;5168;47.854;7.944;2023-03-01T18:42:54;0.30;99.90
10247;DHT22;5168;47.854;7.944;2023-03-01T18:45:20;0.60;99.90
10247;DHT22;5168;47.854;7.944;2023-03-01T18:47:45;-0.10;99.90
10247;DHT22;5168;47.854;7.944;2023-03-01T18:50:16;0.20;99.90
10247;DHT22;5168;47.854;7.944;2023-03-01T18:52:42;0.50;99.90
10247;DHT22;5168;47.854;7.944;2023-03-01T18:55:08;0.70;99.90
10247;DHT22;5168;47.854;7.944;2023-03-01T18:57:34;0.70;99.90
10247;DHT22;5168;47.854;7.944;2023-03-01T18:59:59;0.70;99.90
10247;DHT22;5168;47.854;7.944;2023-03-01T19:02:25;0.60;99.90
10247;DHT22;5168;47.854;7.944;2023-03-01T19:04:50;0.40;99.90
10247;DHT22;5168;47.854;7.944;2023-03-01T19:12:08;0.10;99.90
10247;DHT22;5168;47.854;7.944;2023-03-01T19:19:26;0.10;99.90
10247;DHT22;5168;47.854;7.944;2023-03-01T19:21:51;0.00;99.90
10247;DHT22;5168;47.854;7.944;2023-03-01T19:24:17;0.10;99.90
10247;DHT22;5168;47.854;7.944;2023-03-01T19:31:37;-0.10;99.90
10247;DHT22;5168;47.854;7.944;2023-03-01T19:34:02;0.10;99.90
10247;DHT22;5168;47.854;7.944;2023-03-01T19:36:28;-0.30;99.90
10247;DHT22;5168;47.854;7.944;2023-03-01T19:38:58;0.30;99.90
10247;DHT22;5168;47.854;7.944;2023-03-01T19:41:24;0.00;99.90
10247;DHT22;5168;47.854;7.944;2023-03-01T19:43:51;0.70;99.90
10247;DHT22;5168;47.854;7.944;2023-03-01T19:51:10;0.20;99.90
10247;DHT22;5168;47.854;7.944;2023-03-01T19:53:38;0.20;99.90
10247;DHT22;5168;47.854;7.944;2023-03-01T19:56:04;0.30;99.90
10247;DHT22;5168;47.854;7.944;2023-03-01T19:58:32;-0.10;99.90
10247;DHT22;5168;47.854;7.944;2023-03-01T20:00:58;0.20;99.90
10247;DHT22;5168;47.854;7.944;2023-03-01T20:03:29;-0.20;99.90
10247;DHT22;5168;47.854;7.944;2023-03-01T20:05:55;0.00;99.90
10247;DHT22;5168;47.854;7.944;2023-03-01T20:08:23;0.30;99.90
10247;DHT22;5168;47.854;7.944;2023-03-01T20:10:48;0.70;99.90
10247;DHT22;5168;47.854;7.944;2023-03-01T20:13:14;0.20;99.90
10247;DHT22;5168;47.854;7.944;2023-03-01T20:15:43;0.10;99.90
10247;DHT22;5168;47.854;7.944;2023-03-01T20:18:09;-0.40;99.90
10247;DHT22;5168;47.854;7.944;2023-03-01T20:25:28;0.20;99.90
10247;DHT22;5168;47.854;7.944;2023-03-01T20:27:53;-0.20;99.90
10247;DHT22;5168;47.854;7.944;2023-03-01T20:30:19;0.10;99.90
10247;DHT22;5168;47.854;7.944;2023-03-01T20:32:44;0.10;99.90
10247;DHT22;5168;47.854;7.944;2023-03-01T20:40:02;0.00;99.90
10247;DHT22;5168;47.854;7.944;2023-03-01T20:49:49;-0.10;99.90
10247;DHT22;5168;47.854;7.944;2023-03-01T20:52:16;0.20;99.90
10247;DHT22;5168;47.854;7.944;2023-03-01T20:54:42;0.50;99.90
10247;DHT22;5168;47.854;7.944;2023-03-01T20:57:07;0.20;99.90
10247;DHT22;5168;47.854;7.944;2023-03-01T20:59:33;0.40;99.90
10247;DHT22;5168;47.854;7.944;2023-03-01T21:01:59;0.50;99.90
10247;DHT22;5168;47.854;7.944;2023-03-01T21:04:25;0.70;99.90
10247;DHT22;5168;47.854;7.944;2023-03-01T21:06:50;0.90;99.90
10247;DHT22;5168;47.854;7.944;2023-03-01T21:21:27;0.20;99.90
10247;DHT22;5168;47.854;7.944;2023-03-01T21:23:53;0.40;99.90
10247;DHT22;5168;47.854;7.944;2023-03-01T21:26:21;0.80;99.90
10247;DHT22;5168;47.854;7.944;2023-03-01T21:28:49;0.60;99.90
10247;DHT22;5168;47.854;7.944;2023-03-01T21:31:20;0.70;99.90
10247;DHT22;5168;47.854;7.944;2023-03-01T21:33:48;0.80;99.90